Time;durP1;ratioP1;P1;durP2;ratioP2;P2;SDS_P1;SDS_P2;PMS_P1;PMS_P2;Temp;Humidity;BMP_temperature;BMP_pressure;BME280_temperature;BME280_humidity;BME280_pressure;Samples;Min_cycle;Max_cycle;Signal;HPM_P1;HPM_P2
2021/01/09 00:00:15;;;;;;;9.48;8.48;;;5.70;42.20;;;;;;4930100;29;20250;-95
2021/01/09 00:06:03;;;;;;;10.05;8.35;;;5.80;43.60;;;;;;4929467;29;20255;-96
2021/01/09 00:11:51;;;;;;;8.40;7.53;;;5.40;43.30;;;;;;4928146;29;20794;-96
2021/01/09 00:17:41;;;;;;;11.10;8.75;;;5.70;43.40;;;;;;4928087;29;20390;-96
2021/01/09 01:26:20;;;;;;;13.07;8.90;;;4.50;43.50;;;;;;4907748;29;20198;-96
2021/01/09 01:28:49;;;;;;;10.93;8.02;;;4.80;44.50;;;;;;4891998;29;20231;-96
2021/01/09 01:31:16;;;;;;;10.93;8.25;;;4.40;45.10;;;;;;4891535;29;20196;-96
2021/01/09 01:33:41;;;;;;;10.80;8.88;;;5.00;45.30;;;;;;4892721;29;20262;-96
2021/01/09 01:39:29;;;;;;;9.27;7.88;;;5.30;45.00;;;;;;4912506;29;20483;-96
2021/01/09 01:45:18;;;;;;;9.05;8.15;;;5.40;45.30;;;;;;4914223;29;20396;-96
2021/01/09 01:51:10;;;;;;;10.02;7.35;;;5.60;44.70;;;;;;4915023;29;20159;-96
2021/01/09 01:57:02;;;;;;;8.18;6.82;;;5.10;44.50;;;;;;4912968;29;20174;-96
2021/01/09 02:02:53;;;;;;;8.40;6.65;;;5.70;44.80;;;;;;4909210;29;20283;-96
2021/01/09 02:15:17;;;;;;;10.57;9.48;;;5.70;45.00;;;;;;4869852;29;20212;-96
2021/01/09 02:24:26;;;;;;;8.05;6.93;;;5.30;45.10;;;;;;4889356;29;20261;-96
2021/01/09 02:30:21;;;;;;;8.15;6.80;;;5.80;45.40;;;;;;4890191;29;20184;-96
2021/01/09 02:36:09;;;;;;;9.38;7.32;;;5.30;44.50;;;;;;4880339;29;20207;-95
2021/01/09 02:46:38;;;;;;;9.07;7.95;;;5.70;44.30;;;;;;4939835;29;20234;-94
2021/01/09 02:49:05;;;;;;;8.75;7.60;;;5.70;43.30;;;;;;4924167;29;20681;-93
2021/01/09 02:51:32;;;;;;;9.88;8.07;;;5.70;43.00;;;;;;4926552;29;20167;-94
2021/01/09 02:54:23;;;;;;;9.48;8.50;;;5.80;42.80;;;;;;4926244;29;20351;-94
2021/01/09 02:56:49;;;;;;;10.65;8.70;;;5.90;43.80;;;;;;4927055;29;20189;-94
2021/01/09 02:59:14;;;;;;;10.00;8.70;;;5.60;43.60;;;;;;4927286;29;20151;-95
2021/01/09 03:01:48;;;;;;;8.93;8.00;;;5.40;43.90;;;;;;4926591;29;20201;-94
2021/01/09 03:04:14;;;;;;;9.07;7.80;;;5.70;43.80;;;;;;4927578;29;20166;-94
2021/01/09 03:06:39;;;;;;;10.50;8.70;;;5.70;44.20;;;;;;4927121;29;20166;-93
2021/01/09 03:09:05;;;;;;;9.67;8.10;;;5.40;44.10;;;;;;4926519;29;20626;-94
2021/01/09 03:11:31;;;;;;;8.90;8.03;;;5.60;43.90;;;;;;4926083;29;20166;-93
2021/01/09 03:13:56;;;;;;;10.50;7.80;;;5.30;43.90;;;;;;4928157;29;20171;-94
2021/01/09 03:16:22;;;;;;;9.90;8.87;;;5.70;43.90;;;;;;4933003;29;20556;-94
2021/01/09 03:18:49;;;;;;;9.43;8.40;;;5.50;43.70;;;;;;4930945;29;20170;-96
2021/01/09 03:21:15;;;;;;;9.07;6.75;;;5.10;43.50;;;;;;4927796;29;20166;-94
2021/01/09 03:23:47;;;;;;;9.03;8.13;;;5.80;44.00;;;;;;4926976;29;20222;-95
2021/01/09 03:26:13;;;;;;;9.85;8.85;;;5.70;44.30;;;;;;4926808;29;20205;-95
2021/01/09 03:28:39;;;;;;;13.47;10.27;;;5.70;44.80;;;;;;4926817;29;20533;-94
2021/01/09 03:31:11;;;;;;;9.23;8.10;;;5.20;43.00;;;;;;4927505;29;20174;-95
2021/01/09 03:33:37;;;;;;;11.93;8.95;;;5.50;43.30;;;;;;4926947;29;20234;-95
2021/01/09 03:36:03;;;;;;;9.33;8.40;;;5.70;43.20;;;;;;4926542;29;20245;-95
2021/01/09 03:38:29;;;;;;;9.60;8.40;;;5.70;42.50;;;;;;4926567;29;20167;-94
2021/01/09 03:40:55;;;;;;;9.73;7.97;;;5.40;42.30;;;;;;4927000;29;20221;-94
2021/01/09 03:43:20;;;;;;;10.33;8.30;;;5.20;42.20;;;;;;4926472;29;20253;-94
2021/01/09 03:45:46;;;;;;;9.40;8.10;;;5.80;43.40;;;;;;4911755;29;20225;-94
2021/01/09 03:48:13;;;;;;;11.57;8.33;;;5.80;43.70;;;;;;4905320;29;20186;-91
2021/01/09 03:50:38;;;;;;;9.45;7.57;;;6.00;43.50;;;;;;4905291;29;20179;-91
2021/01/09 03:53:04;;;;;;;8.90;8.00;;;5.40;43.40;;;;;;4904988;29;20171;-92
2021/01/09 03:55:31;;;;;;;9.20;7.60;;;5.50;43.50;;;;;;4905049;29;20203;-92
2021/01/09 03:57:56;;;;;;;13.73;8.85;;;6.10;43.90;;;;;;4905592;29;20203;-90
2021/01/09 04:00:22;;;;;;;8.70;7.60;;;5.70;44.00;;;;;;4921895;29;20619;-91
2021/01/09 04:02:48;;;;;;;9.27;8.37;;;6.00;44.00;;;;;;4904861;29;20175;-90
2021/01/09 04:05:13;;;;;;;8.10;7.30;;;5.90;44.10;;;;;;4905200;29;20175;-92
2021/01/09 04:07:39;;;;;;;9.80;7.80;;;6.00;44.10;;;;;;4905489;29;20174;-92
2021/01/09 04:10:05;;;;;;;11.70;8.40;;;5.70;43.80;;;;;;4905595;29;20219;-92
2021/01/09 04:12:31;;;;;;;11.77;9.48;;;5.90;44.50;;;;;;4904985;29;20172;-91
2021/01/09 04:14:57;;;;;;;9.27;8.17;;;6.40;44.70;;;;;;4905341;29;20216;-92
2021/01/09 04:17:23;;;;;;;10.80;9.27;;;5.90;44.50;;;;;;4904868;29;20179;-91
2021/01/09 04:19:48;;;;;;;9.57;8.57;;;5.90;44.30;;;;;;4904790;29;20231;-92
2021/01/09 04:22:15;;;;;;;9.93;7.53;;;5.80;43.90;;;;;;4908744;29;20192;-96
2021/01/09 04:28:03;;;;;;;7.93;7.13;;;5.90;44.40;;;;;;4931601;29;20163;-96
2021/01/09 04:33:52;;;;;;;9.32;7.32;;;6.10;44.10;;;;;;4931278;29;20278;-96
2021/01/09 04:39:40;;;;;;;7.53;6.82;;;6.20;43.80;;;;;;4928415;29;20180;-96
2021/01/09 04:49:04;;;;;;;9.50;8.15;;;6.00;43.10;;;;;;4946314;29;20299;-96
2021/01/09 04:54:55;;;;;;;10.95;8.63;;;6.20;43.50;;;;;;4946465;29;20221;-96
2021/01/09 05:00:44;;;;;;;10.57;9.30;;;6.50;43.70;;;;;;4950863;29;20239;-96
2021/01/09 05:06:32;;;;;;;9.65;8.55;;;5.90;43.00;;;;;;4949218;29;20165;-96
2021/01/09 05:12:21;;;;;;;11.38;10.18;;;6.70;43.60;;;;;;4988635;23;20255;-91
2021/01/09 05:24:54;;;;;;;9.73;8.80;;;6.00;43.00;;;;;;4941489;28;20234;-93
2021/01/09 05:27:22;;;;;;;11.47;9.47;;;6.30;42.50;;;;;;4947596;29;20179;-96
2021/01/09 05:29:53;;;;;;;11.25;9.68;;;6.10;42.70;;;;;;4953672;29;20182;-96
2021/01/09 05:35:41;;;;;;;10.52;8.75;;;6.20;43.10;;;;;;4950374;29;20572;-96
2021/01/09 05:41:30;;;;;;;11.85;10.50;;;5.40;43.40;;;;;;4951266;28;20157;-96
2021/01/09 05:47:27;;;;;;;9.63;8.63;;;5.60;44.30;;;;;;4952470;29;20162;-96
2021/01/09 05:53:37;;;;;;;11.50;9.13;;;5.10;44.00;;;;;;4954344;29;20157;-96
2021/01/09 05:59:35;;;;;;;9.70;8.73;;;5.60;44.60;;;;;;4955930;28;20285;-96
2021/01/09 06:11:55;;;;;;;9.95;8.98;;;5.20;44.70;;;;;;4927499;29;20159;-96
2021/01/09 06:17:44;;;;;;;10.13;9.13;;;5.30;44.10;;;;;;4928733;29;20195;-96
2021/01/09 06:27:04;;;;;;;12.75;11.55;;;5.80;44.50;;;;;;4932584;29;20231;-96
2021/01/09 06:32:59;;;;;;;12.75;10.52;;;5.30;45.40;;;;;;4935332;29;20231;-96
2021/01/09 06:36:08;;;;;;;13.05;11.10;;;5.40;45.40;;;;;;4916564;29;20685;-96
2021/01/09 06:41:59;;;;;;;12.88;10.93;;;5.30;46.20;;;;;;4931990;29;20163;-96
2021/01/09 07:46:32;;;;;;;13.57;12.15;;;5.10;47.70;;;;;;4941899;28;20222;-90
2021/01/09 07:49:02;;;;;;;13.23;10.90;;;4.80;46.90;;;;;;4942287;29;20179;-92
2021/01/09 07:51:58;;;;;;;12.05;10.75;;;4.90;47.20;;;;;;4927824;29;20166;-91
2021/01/09 07:54:30;;;;;;;11.05;9.45;;;5.00;47.90;;;;;;4923850;29;20400;-91
2021/01/09 07:56:56;;;;;;;9.60;8.63;;;5.70;48.10;;;;;;4925462;29;20174;-90
2021/01/09 07:59:22;;;;;;;12.90;11.52;;;4.80;47.10;;;;;;4926431;29;20174;-92
2021/01/09 08:01:47;;;;;;;10.80;9.70;;;5.20;47.20;;;;;;4925766;29;20184;-92
2021/01/09 08:04:13;;;;;;;12.63;11.30;;;5.10;47.00;;;;;;4924801;29;20185;-93
2021/01/09 08:06:40;;;;;;;14.10;10.80;;;4.90;46.70;;;;;;4924390;29;20193;-93
2021/01/09 08:09:07;;;;;;;11.02;9.68;;;5.30;47.50;;;;;;4924249;29;20240;-92
2021/01/09 08:11:43;;;;;;;11.90;10.52;;;5.40;47.30;;;;;;4922674;29;20637;-92
2021/01/09 08:14:10;;;;;;;12.30;9.73;;;5.40;46.50;;;;;;4922953;29;20695;-93
2021/01/09 08:16:36;;;;;;;13.40;10.88;;;5.30;47.00;;;;;;4923402;29;20233;-92
2021/01/09 08:19:17;;;;;;;12.10;9.67;;;5.50;46.90;;;;;;4924634;29;20205;-92
2021/01/09 08:21:46;;;;;;;11.18;10.00;;;4.90;45.50;;;;;;4908785;29;20853;-92
2021/01/09 08:24:26;;;;;;;12.02;9.73;;;5.50;46.00;;;;;;4924236;29;20607;-90
2021/01/09 08:26:56;;;;;;;14.02;9.93;;;5.70;46.60;;;;;;4923932;29;20170;-93
2021/01/09 08:29:23;;;;;;;11.77;9.95;;;5.80;45.80;;;;;;4924876;29;20635;-91
2021/01/09 08:31:50;;;;;;;11.48;10.27;;;6.00;46.60;;;;;;4925471;29;20193;-92
2021/01/09 08:39:23;;;;;;;12.00;10.75;;;5.90;46.00;;;;;;4956588;28;20233;-89
2021/01/09 08:41:51;;;;;;;11.63;9.60;;;5.90;45.00;;;;;;4942504;29;20596;-88
2021/01/09 08:44:18;;;;;;;14.77;12.57;;;5.70;44.50;;;;;;4941724;29;20177;-88
2021/01/09 08:46:45;;;;;;;12.23;10.93;;;6.30;44.60;;;;;;4942567;29;20178;-88
2021/01/09 08:49:25;;;;;;;13.35;11.45;;;5.60;43.90;;;;;;4941887;29;20182;-87
2021/01/09 08:52:07;;;;;;;12.15;10.50;;;6.20;45.00;;;;;;4941820;29;20178;-87
2021/01/09 08:54:34;;;;;;;12.65;11.15;;;6.00;44.70;;;;;;4941424;29;20656;-86
2021/01/09 08:57:03;;;;;;;15.07;12.20;;;5.70;43.60;;;;;;4942090;29;20256;-91
2021/01/09 08:59:29;;;;;;;16.00;14.40;;;6.10;45.20;;;;;;4943249;29;20177;-89
2021/01/09 09:02:01;;;;;;;15.63;13.93;;;6.10;44.50;;;;;;4941998;29;20174;-89
2021/01/09 09:04:28;;;;;;;14.25;11.70;;;5.60;43.80;;;;;;4941775;29;20174;-89
2021/01/09 09:06:58;;;;;;;16.90;15.30;;;6.00;44.10;;;;;;4941501;29;20420;-89
2021/01/09 09:09:26;;;;;;;15.30;13.70;;;5.90;44.10;;;;;;4941012;29;20205;-89
2021/01/09 09:11:53;;;;;;;14.85;13.23;;;6.10;44.10;;;;;;4941932;29;20253;-89
2021/01/09 09:14:20;;;;;;;13.75;12.18;;;6.00;44.10;;;;;;4942286;29;20264;-93
2021/01/09 09:17:04;;;;;;;15.05;13.55;;;5.70;44.10;;;;;;4945353;29;20174;-93
2021/01/09 09:19:37;;;;;;;19.25;17.35;;;6.00;44.10;;;;;;4944223;29;20169;-93
2021/01/09 09:22:04;;;;;;;15.32;13.82;;;5.30;45.00;;;;;;4943406;29;20216;-93
2021/01/09 09:24:39;;;;;;;20.25;17.35;;;5.80;44.50;;;;;;4943421;29;20177;-93
2021/01/09 09:27:28;;;;;;;15.20;13.65;;;5.80;45.20;;;;;;4943188;29;20209;-93
2021/01/09 09:30:14;;;;;;;13.68;12.38;;;5.80;46.30;;;;;;4942880;29;20594;-93
2021/01/09 09:32:45;;;;;;;12.85;11.40;;;5.90;45.50;;;;;;4943234;29;20184;-92
2021/01/09 09:35:29;;;;;;;15.52;13.75;;;6.10;45.20;;;;;;4942541;29;20235;-91
2021/01/09 09:37:58;;;;;;;14.10;12.80;;;6.00;44.70;;;;;;4940491;29;20234;-92
2021/01/09 09:40:27;;;;;;;15.48;13.88;;;6.30;44.50;;;;;;4954897;29;20457;-89
2021/01/09 09:42:54;;;;;;;15.25;13.63;;;5.50;43.70;;;;;;4954846;29;20667;-92
2021/01/09 09:45:22;;;;;;;13.30;11.90;;;6.60;44.40;;;;;;4939430;29;20197;-92
2021/01/09 09:47:49;;;;;;;15.85;13.32;;;5.80;44.00;;;;;;4937974;29;20171;-91
2021/01/09 09:50:23;;;;;;;16.13;14.48;;;6.00;44.50;;;;;;4938293;29;20257;-90
2021/01/09 09:53:05;;;;;;;21.42;19.20;;;6.40;44.20;;;;;;4938307;29;20596;-90
2021/01/09 09:55:31;;;;;;;17.90;15.10;;;5.60;43.80;;;;;;4953480;29;20232;-88
2021/01/09 09:58:08;;;;;;;17.77;15.85;;;6.20;44.10;;;;;;4937195;29;20647;-90
2021/01/09 10:00:44;;;;;;;14.60;13.10;;;5.70;43.80;;;;;;4937430;29;20178;-91
2021/01/09 10:03:10;;;;;;;19.92;17.23;;;6.10;44.40;;;;;;4937611;29;20170;-90
2021/01/09 10:05:36;;;;;;;23.13;20.83;;;6.60;43.70;;;;;;4938556;29;20672;-89
2021/01/09 10:08:13;;;;;;;18.20;16.27;;;7.10;43.70;;;;;;4938214;29;20175;-89
2021/01/09 10:10:38;;;;;;;16.52;13.88;;;6.60;43.80;;;;;;4938268;29;20643;-89
2021/01/09 10:13:05;;;;;;;15.13;13.60;;;6.70;42.70;;;;;;4937137;29;20194;-91
2021/01/09 10:15:31;;;;;;;19.25;16.20;;;6.90;43.50;;;;;;4925269;29;20829;-92
2021/01/09 10:17:59;;;;;;;15.87;13.80;;;6.50;42.70;;;;;;4926208;29;20159;-91
2021/01/09 10:20:27;;;;;;;15.77;14.18;;;6.00;43.70;;;;;;4918670;29;20412;-90
2021/01/09 10:22:53;;;;;;;15.55;13.88;;;6.50;43.50;;;;;;4919831;29;20186;-91
2021/01/09 10:25:19;;;;;;;23.58;16.90;;;6.50;43.80;;;;;;4920148;29;20167;-87
2021/01/09 10:27:44;;;;;;;20.35;15.88;;;6.80;43.60;;;;;;4937484;29;20582;-91
2021/01/09 10:30:11;;;;;;;21.33;19.10;;;7.10;44.10;;;;;;4937549;29;20182;-89
2021/01/09 10:32:36;;;;;;;20.83;17.85;;;6.60;43.70;;;;;;4937274;29;20449;-91
2021/01/09 10:35:03;;;;;;;18.90;15.80;;;6.80;43.50;;;;;;4937339;29;20202;-89
2021/01/09 10:37:29;;;;;;;18.67;15.38;;;6.70;43.30;;;;;;4934732;29;20175;-88
2021/01/09 10:39:54;;;;;;;21.47;17.07;;;6.80;43.10;;;;;;4921388;29;20664;-90
2021/01/09 10:42:20;;;;;;;19.40;16.33;;;7.40;43.20;;;;;;4922467;29;20170;-89
2021/01/09 10:44:46;;;;;;;24.90;18.60;;;6.30;42.60;;;;;;4921768;29;20174;-87
2021/01/09 10:47:11;;;;;;;20.73;17.10;;;7.10;43.00;;;;;;4938699;29;20163;-90
2021/01/09 10:49:37;;;;;;;21.47;17.33;;;6.80;42.60;;;;;;4921921;29;20535;-88
2021/01/09 10:52:04;;;;;;;17.77;15.83;;;6.80;43.30;;;;;;4921650;29;20446;-88
2021/01/09 10:54:30;;;;;;;18.15;14.50;;;7.20;43.90;;;;;;4939108;29;20217;-87
2021/01/09 10:56:55;;;;;;;15.53;13.93;;;7.50;41.60;;;;;;4921744;29;20174;-87
2021/01/09 10:59:21;;;;;;;13.17;11.80;;;7.00;41.00;;;;;;4921503;29;20193;-87
2021/01/09 11:01:56;;;;;;;14.67;12.27;;;7.30;41.30;;;;;;4924440;29;20246;-88
2021/01/09 11:04:22;;;;;;;14.05;12.68;;;7.30;40.40;;;;;;4939848;29;20526;-88
2021/01/09 11:06:48;;;;;;;16.37;13.23;;;7.50;40.20;;;;;;4940369;29;20268;-88
2021/01/09 11:09:13;;;;;;;15.57;12.67;;;7.30;40.40;;;;;;4940369;28;20300;-89
2021/01/09 11:11:45;;;;;;;14.63;12.10;;;7.20;40.70;;;;;;4932924;29;20598;-89
2021/01/09 11:14:11;;;;;;;13.02;11.73;;;7.20;38.80;;;;;;4934871;29;20778;-87
2021/01/09 11:16:36;;;;;;;13.93;12.43;;;6.80;39.60;;;;;;4942843;29;20197;-88
2021/01/09 11:19:02;;;;;;;14.93;11.93;;;7.20;39.60;;;;;;4943494;29;20173;-88
2021/01/09 11:21:28;;;;;;;12.73;11.50;;;7.20;40.50;;;;;;4942318;29;20653;-89
2021/01/09 11:23:53;;;;;;;10.83;9.53;;;7.20;38.60;;;;;;4943723;29;20178;-88
2021/01/09 11:26:26;;;;;;;14.90;12.00;;;7.10;40.30;;;;;;4943646;29;20162;-89
2021/01/09 11:28:53;;;;;;;13.30;11.20;;;6.90;39.10;;;;;;4943070;29;20170;-89
2021/01/09 11:31:20;;;;;;;15.70;13.15;;;7.00;39.70;;;;;;4943605;29;20166;-88
2021/01/09 11:33:46;;;;;;;18.20;12.90;;;6.40;38.90;;;;;;4943224;29;20185;-89
2021/01/09 11:36:12;;;;;;;14.67;12.00;;;6.90;40.00;;;;;;4959394;29;20200;-90
2021/01/09 11:38:39;;;;;;;14.80;11.38;;;6.80;39.70;;;;;;4944091;29;20979;-90
2021/01/09 11:41:05;;;;;;;13.43;12.10;;;6.40;40.40;;;;;;4943600;29;20655;-90
2021/01/09 11:43:31;;;;;;;12.75;11.45;;;6.20;40.50;;;;;;4942945;29;20224;-91
2021/01/09 11:45:57;;;;;;;15.53;12.90;;;6.70;41.20;;;;;;4941862;29;20173;-91
2021/01/09 11:48:24;;;;;;;14.83;12.63;;;7.00;41.00;;;;;;4943357;29;20184;-91
2021/01/09 11:50:51;;;;;;;15.80;12.40;;;6.30;39.20;;;;;;4943788;29;20433;-91
2021/01/09 11:53:17;;;;;;;14.77;11.18;;;6.70;40.20;;;;;;4943046;29;20217;-91
2021/01/09 11:55:42;;;;;;;15.68;11.63;;;6.50;40.00;;;;;;4943257;29;20695;-91
2021/01/09 11:58:08;;;;;;;14.23;11.53;;;5.90;39.70;;;;;;4943422;29;20162;-91
2021/01/09 12:00:34;;;;;;;13.20;10.63;;;5.70;39.80;;;;;;4941945;29;20174;-91
2021/01/09 12:02:59;;;;;;;13.27;11.70;;;5.30;39.00;;;;;;4943363;29;20195;-90
2021/01/09 12:05:25;;;;;;;14.30;12.80;;;5.70;40.30;;;;;;4943282;29;20221;-91
2021/01/09 12:07:51;;;;;;;12.83;10.90;;;5.20;40.30;;;;;;4943567;29;20185;-91
2021/01/09 12:10:17;;;;;;;15.20;11.10;;;5.40;40.50;;;;;;4944215;29;20236;-91
2021/01/09 12:12:42;;;;;;;14.07;11.40;;;6.20;40.90;;;;;;4943961;29;20174;-92
2021/01/09 12:15:09;;;;;;;13.80;11.27;;;6.20;40.10;;;;;;4944511;29;20533;-91
2021/01/09 12:17:35;;;;;;;15.90;11.80;;;6.00;39.80;;;;;;4942283;29;20621;-91
2021/01/09 12:20:02;;;;;;;12.63;10.40;;;6.10;40.50;;;;;;4943367;29;20649;-91
2021/01/09 12:22:28;;;;;;;18.23;11.88;;;5.90;40.70;;;;;;4942917;29;20284;-90
2021/01/09 12:24:53;;;;;;;14.60;11.20;;;5.20;40.60;;;;;;4943448;29;20197;-95
2021/01/09 12:27:19;;;;;;;15.37;12.40;;;5.50;42.10;;;;;;4942743;29;20272;-94
2021/01/09 12:29:45;;;;;;;13.63;11.20;;;5.10;41.50;;;;;;4942721;29;20174;-91
2021/01/09 12:32:27;;;;;;;13.53;10.93;;;6.10;42.50;;;;;;4945006;29;20174;-95
2021/01/09 12:34:54;;;;;;;13.20;10.70;;;5.60;41.10;;;;;;4941417;29;20480;-87
2021/01/09 12:37:20;;;;;;;14.48;9.20;;;6.20;41.10;;;;;;4945830;29;20185;-91
2021/01/09 12:39:49;;;;;;;14.43;12.90;;;5.40;40.30;;;;;;4943376;29;20178;-92
2021/01/09 12:42:14;;;;;;;12.50;11.20;;;6.00;40.50;;;;;;4943167;29;20186;-91
2021/01/09 12:44:40;;;;;;;12.70;10.90;;;5.60;39.50;;;;;;4943183;29;20224;-93
2021/01/09 12:47:08;;;;;;;11.43;10.00;;;6.50;39.20;;;;;;4943288;29;20660;-91
2021/01/09 12:49:34;;;;;;;9.75;8.73;;;6.50;39.90;;;;;;4943792;29;20410;-92
2021/01/09 12:52:00;;;;;;;14.43;9.00;;;6.40;39.30;;;;;;4945114;29;20193;-91
2021/01/09 12:54:25;;;;;;;10.47;9.40;;;6.30;38.70;;;;;;4944462;29;20180;-93
2021/01/09 12:56:53;;;;;;;10.33;8.60;;;6.40;38.40;;;;;;4941957;29;20907;-92
2021/01/09 12:59:20;;;;;;;11.77;8.95;;;6.20;38.00;;;;;;4942824;29;20423;-93
2021/01/09 13:01:47;;;;;;;12.90;9.63;;;6.20;38.10;;;;;;4942853;29;20185;-93
2021/01/09 13:04:14;;;;;;;15.07;11.15;;;7.00;38.90;;;;;;4942161;28;20205;-93
2021/01/09 13:06:43;;;;;;;13.00;10.85;;;6.20;37.90;;;;;;4943582;29;20541;-93
2021/01/09 13:09:11;;;;;;;14.88;11.68;;;6.20;38.70;;;;;;4944249;29;20181;-91
2021/01/09 13:11:37;;;;;;;12.02;10.05;;;7.00;39.30;;;;;;4944032;29;20209;-91
2021/01/09 13:14:07;;;;;;;14.70;11.73;;;6.00;39.00;;;;;;4943860;29;20632;-91
2021/01/09 13:16:33;;;;;;;14.15;10.60;;;6.10;39.90;;;;;;4943405;29;20243;-91
2021/01/09 13:18:59;;;;;;;13.75;10.52;;;6.30;39.80;;;;;;4942933;29;20236;-90
2021/01/09 13:21:25;;;;;;;14.33;11.27;;;6.30;40.00;;;;;;4943139;29;20233;-90
2021/01/09 13:23:51;;;;;;;16.50;11.37;;;6.00;39.90;;;;;;4943846;29;20402;-91
2021/01/09 13:26:16;;;;;;;13.23;10.90;;;6.10;40.20;;;;;;4943537;29;20485;-90
2021/01/09 13:28:46;;;;;;;13.73;11.47;;;5.90;39.80;;;;;;4942304;29;20233;-90
2021/01/09 13:31:17;;;;;;;13.48;11.18;;;6.60;40.30;;;;;;4942936;29;20168;-90
2021/01/09 13:33:43;;;;;;;15.75;12.00;;;6.20;39.80;;;;;;4942086;29;20590;-90
2021/01/09 13:36:10;;;;;;;14.37;10.60;;;5.80;39.30;;;;;;4941875;29;20217;-91
2021/01/09 13:38:38;;;;;;;11.25;9.50;;;5.70;39.50;;;;;;4943315;29;20229;-91
2021/01/09 13:41:03;;;;;;;14.88;10.52;;;6.00;40.20;;;;;;4943259;29;20200;-91
2021/01/09 13:44:05;;;;;;;13.53;10.73;;;6.10;39.90;;;;;;4941834;29;20178;-91
2021/01/09 13:46:32;;;;;;;11.82;10.20;;;6.10;40.60;;;;;;4942516;29;20176;-91
2021/01/09 13:49:09;;;;;;;10.43;8.45;;;5.50;40.90;;;;;;4943320;29;20192;-92
2021/01/09 13:51:35;;;;;;;12.82;10.27;;;5.20;41.00;;;;;;4941654;29;20170;-91
2021/01/09 13:54:03;;;;;;;11.70;9.38;;;6.00;41.50;;;;;;4941533;29;20166;-89
2021/01/09 13:56:45;;;;;;;10.70;9.60;;;5.70;41.00;;;;;;4940928;29;20201;-90
2021/01/09 13:59:19;;;;;;;11.00;8.73;;;4.90;42.00;;;;;;4940676;29;20302;-88
2021/01/09 14:01:46;;;;;;;12.07;10.20;;;5.00;42.50;;;;;;4953523;29;20166;-90
2021/01/09 14:04:12;;;;;;;12.82;9.80;;;4.90;42.60;;;;;;4954743;29;20173;-88
2021/01/09 14:06:38;;;;;;;11.97;9.53;;;5.10;42.00;;;;;;4940850;29;20170;-89
2021/01/09 14:09:08;;;;;;;14.73;10.75;;;4.80;41.50;;;;;;4940983;29;20560;-91
2021/01/09 14:11:34;;;;;;;9.65;8.65;;;5.00;42.00;;;;;;4940733;29;20618;-88
2021/01/09 14:14:15;;;;;;;11.23;10.07;;;5.00;41.80;;;;;;4940373;29;20174;-89
2021/01/09 14:16:41;;;;;;;11.35;9.05;;;4.50;41.20;;;;;;4941379;29;20921;-89
2021/01/09 14:19:12;;;;;;;11.83;9.40;;;5.20;41.30;;;;;;4940294;29;20186;-91
2021/01/09 14:21:43;;;;;;;8.80;7.90;;;5.10;40.50;;;;;;4940015;29;20185;-90
2021/01/09 14:24:09;;;;;;;8.20;7.30;;;5.50;40.10;;;;;;4941050;29;20637;-90
2021/01/09 14:26:37;;;;;;;8.73;7.77;;;5.50;39.90;;;;;;4940679;29;20254;-91
2021/01/09 14:29:04;;;;;;;9.25;6.57;;;4.90;38.80;;;;;;4940852;29;20264;-89
2021/01/09 14:31:36;;;;;;;10.80;8.40;;;5.60;39.20;;;;;;4940765;29;20676;-90
2021/01/09 14:34:03;;;;;;;11.20;7.57;;;5.10;39.20;;;;;;4940747;29;20162;-91
2021/01/09 14:36:28;;;;;;;9.25;7.30;;;4.90;38.80;;;;;;4940253;29;20201;-91
2021/01/09 14:38:54;;;;;;;8.67;7.77;;;5.30;39.50;;;;;;4939851;29;20631;-90
2021/01/09 14:41:20;;;;;;;8.57;7.63;;;4.90;38.60;;;;;;4940105;29;20629;-90
2021/01/09 14:43:52;;;;;;;9.80;7.97;;;5.30;38.80;;;;;;4941145;28;20461;-90
2021/01/09 14:46:17;;;;;;;9.02;7.60;;;5.10;38.10;;;;;;4944326;29;21010;-90
2021/01/09 14:48:43;;;;;;;7.87;6.63;;;4.70;38.50;;;;;;4943769;29;20178;-90
2021/01/09 14:51:09;;;;;;;7.83;6.90;;;4.70;39.00;;;;;;4950107;28;20569;-88
2021/01/09 14:53:34;;;;;;;9.30;7.23;;;4.10;38.80;;;;;;4952797;28;20177;-90
2021/01/09 14:56:00;;;;;;;11.57;7.33;;;4.60;39.30;;;;;;4957138;28;20606;-89
2021/01/09 14:58:26;;;;;;;8.43;7.40;;;4.70;39.40;;;;;;4953598;28;20632;-91
2021/01/09 15:00:54;;;;;;;7.23;6.53;;;4.80;39.50;;;;;;4947848;28;20543;-91
2021/01/09 15:03:20;;;;;;;7.68;6.97;;;4.30;39.10;;;;;;4943321;29;20488;-90
2021/01/09 15:05:46;;;;;;;7.83;7.03;;;5.00;40.10;;;;;;4942559;29;20277;-91
2021/01/09 15:08:14;;;;;;;9.32;8.20;;;4.90;39.60;;;;;;4950811;29;20173;-91
2021/01/09 15:10:41;;;;;;;8.70;7.80;;;5.00;39.60;;;;;;4941067;29;20174;-90
2021/01/09 15:13:07;;;;;;;10.60;8.57;;;5.00;40.30;;;;;;4939461;29;20265;-88
2021/01/09 15:15:33;;;;;;;8.60;7.70;;;5.00;39.60;;;;;;4942680;29;20197;-90
2021/01/09 15:17:58;;;;;;;9.20;8.00;;;4.80;40.10;;;;;;4962449;29;20177;-88
2021/01/09 15:20:25;;;;;;;11.20;8.67;;;5.20;40.00;;;;;;4972242;23;20629;-87
2021/01/09 15:22:51;;;;;;;11.73;8.50;;;5.00;39.90;;;;;;4958771;29;20260;-90
2021/01/09 15:25:17;;;;;;;8.73;7.53;;;5.30;40.50;;;;;;4959303;29;20208;-90
2021/01/09 15:27:42;;;;;;;9.77;8.77;;;4.70;40.50;;;;;;4957159;29;20213;-89
2021/01/09 15:30:09;;;;;;;9.83;8.03;;;4.80;40.40;;;;;;4959927;29;20170;-89
2021/01/09 15:32:34;;;;;;;12.88;8.55;;;4.90;41.10;;;;;;4957292;29;20185;-88
2021/01/09 15:35:00;;;;;;;10.95;9.50;;;4.80;40.40;;;;;;4958800;29;20423;-90
2021/01/09 15:37:26;;;;;;;9.63;8.53;;;5.00;40.10;;;;;;4959051;28;20184;-90
2021/01/09 15:39:51;;;;;;;10.97;8.63;;;4.50;39.80;;;;;;4959885;29;20161;-89
2021/01/09 15:42:17;;;;;;;10.60;9.50;;;4.90;39.80;;;;;;4960025;28;20165;-90
2021/01/09 15:44:43;;;;;;;12.23;9.57;;;5.00;39.90;;;;;;4960321;29;20166;-89
2021/01/09 15:47:09;;;;;;;12.03;8.17;;;5.40;40.90;;;;;;4958312;29;20173;-91
2021/01/09 15:49:47;;;;;;;11.10;9.10;;;4.80;40.10;;;;;;4960972;29;20449;-90
2021/01/09 15:52:12;;;;;;;12.48;9.98;;;5.00;40.50;;;;;;4961441;29;20169;-90
2021/01/09 15:55:07;;;;;;;10.83;9.20;;;4.80;40.30;;;;;;4962086;28;20208;-91
2021/01/09 15:57:32;;;;;;;13.75;10.20;;;4.80;41.30;;;;;;4958255;29;20402;-90
2021/01/09 15:59:59;;;;;;;21.13;16.90;;;4.90;40.40;;;;;;4976732;28;20210;-89
2021/01/09 16:02:25;;;;;;;17.98;16.08;;;5.30;41.40;;;;;;4955990;29;20188;-89
2021/01/09 16:04:53;;;;;;;17.40;14.77;;;4.70;40.70;;;;;;4960039;29;20178;-91
2021/01/09 16:07:18;;;;;;;19.95;16.77;;;5.30;41.50;;;;;;4960879;29;20535;-91
2021/01/09 16:09:44;;;;;;;15.80;12.40;;;4.60;41.30;;;;;;4976725;28;20170;-90
2021/01/09 16:12:10;;;;;;;14.07;12.40;;;4.70;41.80;;;;;;4977854;28;20200;-90
2021/01/09 16:14:38;;;;;;;22.17;16.70;;;4.70;42.00;;;;;;4977028;28;20158;-90
2021/01/09 16:17:03;;;;;;;87.05;57.63;;;4.50;42.10;;;;;;4976901;28;20571;-90
2021/01/09 16:19:29;;;;;;;20.70;16.37;;;4.50;41.80;;;;;;4974757;28;20189;-92
2021/01/09 16:21:59;;;;;;;124.13;85.80;;;4.40;42.50;;;;;;4957793;28;20237;-91
2021/01/09 16:24:25;;;;;;;17.40;13.77;;;4.20;43.60;;;;;;4960725;29;20504;-92
2021/01/09 16:26:53;;;;;;;12.38;9.95;;;4.40;42.90;;;;;;4961126;29;20185;-92
2021/01/09 16:29:18;;;;;;;14.45;10.85;;;4.50;42.80;;;;;;4961314;29;20220;-88
2021/01/09 16:31:44;;;;;;;19.40;14.10;;;4.20;43.10;;;;;;4959541;29;20685;-90
2021/01/09 16:34:13;;;;;;;130.88;87.88;;;4.60;44.40;;;;;;4960527;29;20178;-89
2021/01/09 16:36:48;;;;;;;88.88;66.38;;;4.40;45.00;;;;;;4960473;29;20197;-89
2021/01/09 16:39:14;;;;;;;30.08;23.33;;;4.00;44.70;;;;;;4976645;28;20162;-88
2021/01/09 16:41:40;;;;;;;19.88;15.73;;;4.00;43.90;;;;;;4960440;29;20168;-89
2021/01/09 16:44:07;;;;;;;22.38;18.00;;;3.80;44.60;;;;;;4976676;28;20173;-89
2021/01/09 16:46:33;;;;;;;15.98;14.27;;;4.20;44.20;;;;;;4959921;29;20213;-88
2021/01/09 16:49:00;;;;;;;43.55;35.22;;;4.40;44.40;;;;;;4958951;29;20176;-89
2021/01/09 16:51:37;;;;;;;23.67;19.27;;;3.30;43.40;;;;;;4960055;29;20165;-87
2021/01/09 16:54:03;;;;;;;45.60;37.15;;;3.80;45.00;;;;;;4959074;29;20174;-89
2021/01/09 16:56:36;;;;;;;47.93;39.60;;;3.50;44.90;;;;;;4961743;28;20207;-89
2021/01/09 16:59:03;;;;;;;29.50;23.98;;;3.80;44.60;;;;;;4954543;28;20419;-91
2021/01/09 17:01:29;;;;;;;19.80;16.25;;;4.00;44.60;;;;;;4953790;28;20174;-91
2021/01/09 17:03:59;;;;;;;22.25;17.98;;;4.20;44.00;;;;;;4986318;28;20169;-90
2021/01/09 17:09:47;;;;;;;16.15;12.00;;;4.10;44.10;;;;;;4963934;29;20180;-93
2021/01/09 17:12:17;;;;;;;14.30;12.40;;;4.20;43.70;;;;;;4977416;28;20537;-92
2021/01/09 17:14:43;;;;;;;12.40;10.48;;;4.20;43.70;;;;;;4976136;28;20445;-92
2021/01/09 17:17:15;;;;;;;14.52;11.95;;;3.90;43.00;;;;;;4960462;29;20162;-91
2021/01/09 17:19:42;;;;;;;15.05;10.45;;;3.90;42.60;;;;;;4961428;29;20162;-93
2021/01/09 17:22:14;;;;;;;12.18;10.05;;;4.50;42.60;;;;;;4960828;29;20260;-91
2021/01/09 17:24:40;;;;;;;11.95;10.63;;;4.50;43.70;;;;;;4961287;29;20165;-91
2021/01/09 17:27:35;;;;;;;12.40;10.38;;;4.50;44.10;;;;;;4965123;29;20233;-94